Outage due to equipment failure. Site will not be transmitting information for the foreseeable future.

Latest Weather Observations for Rundle Island

IDQ60801

Issued at 7:05 pm EST Thursday 31 July 2014 (issued every 30 minutes, with the page automatically refreshed every 10 minutes)

About weather observations | Map of weather stations | Latest weather observations for QLD | Other Formats
Station Details ID: 039322 Name: RUNDLE ISLAND Lat: -23.53 Lon: 151.28 Height: 19.8 m
Data from the previous 72 hours. | See also: Recent months at Rundle Island
Date/Time
EST
Temp
°C
App
Temp
°C
Dew
Point
Rel
Hum
%
Delta-T
°C
Wind Press
QNH
hPa
Press
MSL
hPa
Rain
since 9 am
mm
Dir
 
Spd
km/h
Gust
km/h
Spd
kts
Gust
kts
31/07:00pm 20.5 - - - - NNE 15 17 8 9 1017.7 1017.6 -
31/06:30pm 20.5 - - - - NNE 17 19 9 10 1017.6 - -
31/06:00pm 20.6 - - - - NNE 15 17 8 9 1017.4 1017.3 -
31/05:30pm 20.3 - - - - NE 13 15 7 8 1017.2 - -
31/05:00pm 20.5 - - - - NE 13 15 7 8 1017.2 1017.1 -
31/04:30pm 20.7 - - - - NE 11 13 6 7 1017.3 - -
31/04:00pm 21.0 - - - - ENE 13 15 7 8 1017.1 1017.0 -
31/03:30pm 20.9 - - - - ENE 13 15 7 8 1017.1 - -
31/03:00pm 20.8 - - - - E 11 13 6 7 1017.2 1017.1 -
31/02:30pm 20.7 - - - - E 13 15 7 8 1017.4 - -
31/02:00pm 20.6 - - - - ESE 15 19 8 10 1017.8 1017.7 -
31/01:30pm 20.4 - - - - E 19 20 10 11 1018.0 - -
31/01:00pm 20.1 - - - - E 20 22 11 12 1018.5 1018.4 -
31/12:30pm 20.3 - - - - ESE 15 17 8 9 1019.1 - -
31/12:00pm 19.9 - - - - SE 15 19 8 10 1019.7 1019.6 -
31/11:30am 19.8 - - - - SSE 11 13 6 7 1020.2 - -
31/11:00am 19.8 - - - - SSE 9 11 5 6 1020.7 1020.6 -
31/10:30am 19.0 - - - - SSE 11 13 6 7 1021.1 - -
31/10:00am 18.7 - - - - S 11 13 6 7 1021.3 1021.2 -
31/09:30am 18.8 - - - - S 9 11 5 6 1021.5 - -
31/09:00am 18.3 - - - - S 11 13 6 7 1021.6 1021.5 -
31/08:30am 18.3 - - - - S 11 13 6 7 1021.3 - -
31/08:00am 18.0 - - - - S 13 15 7 8 1021.1 1021.0 -
31/07:30am 17.6 - - - - SSW 15 17 8 9 1020.9 - -
31/07:00am 17.4 - - - - SSW 15 17 8 9 1020.7 1020.6 -
31/06:30am 17.5 - - - - S 15 17 8 9 1020.4 - -
31/06:00am 17.7 - - - - S 13 15 7 8 1020.3 1020.2 -
31/05:30am 17.8 - - - - S 9 11 5 6 1019.9 - -
31/05:00am 17.6 - - - - S 13 15 7 8 1019.7 1019.6 -
31/04:30am 17.5 - - - - S 13 15 7 8 1019.8 - -
31/04:00am 17.6 - - - - S 15 17 8 9 1019.7 1019.6 -
31/03:30am 17.6 - - - - SSW 13 15 7 8 1019.7 - -
31/03:00am 17.7 - - - - S 11 13 6 7 1019.9 1019.8 -
31/02:30am 17.9 - - - - S 9 11 5 6 1020.0 - -
31/02:00am 17.9 - - - - SSW 9 9 5 5 1020.2 1020.1 -
31/01:30am 18.3 - - - - S 9 11 5 6 1020.4 - -
31/01:00am 18.3 - - - - S 11 13 6 7 1020.7 1020.6 -
31/12:30am 18.5 - - - - S 7 7 4 4 1020.8 - -
31/12:00am 19.6 - - - - E 6 6 3 3 1020.8 1020.7 -
 
Date/Time
EST
Temp
°C
App
Temp
°C
Dew
Point
Rel
Hum
%
Delta-T
°C
Wind Press
QNH
hPa
Press
MSL
hPa
Rain
since 9 am
mm
Dir
 
Spd
km/h
Gust
km/h
Spd
kts
Gust
kts
30/11:30pm 19.6 - - - - E 7 7 4 4 1020.9 - -
30/11:00pm 19.7 - - - - E 9 9 5 5 1020.9 1020.8 -
30/10:30pm 19.6 - - - - E 11 13 6 7 1021.0 - -
30/10:00pm 19.6 - - - - E 11 13 6 7 1021.2 1021.1 -
30/09:30pm 19.7 - - - - E 13 13 7 7 1021.3 - -
30/09:00pm 19.7 - - - - E 11 13 6 7 1021.3 1021.2 -
30/08:30pm 19.6 - - - - E 13 13 7 7 1021.1 - -
30/08:00pm 19.7 - - - - E 15 17 8 9 1021.0 1020.9 -
30/07:30pm 19.6 - - - - E 15 19 8 10 1020.8 - -
30/07:00pm 19.7 - - - - E 11 13 6 7 1020.7 1020.6 -
30/06:30pm 19.7 - - - - ESE 9 11 5 6 1020.5 - -
30/06:00pm 19.8 - - - - E 9 11 5 6 1020.0 1019.9 -
30/05:30pm 20.0 - - - - E 13 15 7 8 1019.8 - -
30/05:00pm 20.4 - - - - E 13 13 7 7 1019.7 1019.6 -
30/04:30pm 20.5 - - - - E 13 15 7 8 1019.8 - -
30/04:00pm 20.6 - - - - E 11 13 6 7 1019.6 1019.5 -
30/03:30pm 20.6 - - - - E 13 15 7 8 1019.5 - -
30/03:00pm 20.6 - - - - E 15 17 8 9 1019.7 1019.6 -
30/02:30pm 20.8 - - - - E 13 17 7 9 1019.9 - -
30/02:00pm 21.0 - - - - E 9 11 5 6 1020.1 1020.0 -
30/01:30pm 21.5 - - - - E 7 9 4 5 1020.4 - -
30/01:00pm 22.0 - - - - E 7 9 4 5 1021.0 1020.9 -
30/12:30pm 22.2 - - - - ENE 6 6 3 3 1021.6 - -
30/12:00pm 22.5 - - - - NNE 6 7 3 4 1022.1 1022.0 -
30/11:30am 22.1 - - - - CALM 0 0 0 0 1022.5 - -
30/11:00am 22.8 - - - - CALM 0 0 0 0 1023.0 1022.9 -
30/10:30am 22.4 - - - - CALM 0 0 0 0 1023.4 - -
30/10:00am 19.7 - - - - S 7 9 4 5 1023.7 1023.6 -
30/09:30am 19.4 - - - - S 9 11 5 6 1024.0 - -
30/09:00am 19.0 - - - - SSW 6 7 3 4 1024.0 1023.9 -
30/08:30am 18.5 - - - - S 4 6 2 3 1023.8 - -
30/08:00am 18.0 - - - - SSW 4 6 2 3 1023.5 1023.4 -
30/07:30am 17.5 - - - - SSW 7 9 4 5 1023.2 - -
30/07:00am 17.3 - - - - SSW 7 9 4 5 1022.8 1022.7 -
30/06:30am 17.2 - - - - SW 7 9 4 5 1022.5 - -
30/06:00am 17.2 - - - - SSW 6 7 3 4 1022.1 1022.0 -
30/05:30am 17.1 - - - - SSW 7 9 4 5 1021.9 - -
30/05:00am 17.0 - - - - SW 7 7 4 4 1021.7 1021.6 -
30/04:30am 17.0 - - - - SW 6 7 3 4 1021.5 - -
30/04:00am 17.2 - - - - SW 7 9 4 5 1021.4 1021.3 -
30/03:30am 17.6 - - - - WSW 6 7 3 4 1021.4 - -
30/03:00am 17.4 - - - - WSW 6 9 3 5 1021.4 1021.3 -
30/02:30am 18.5 - - - - CALM 0 0 0 0 1021.5 - -
30/02:00am 18.5 - - - - CALM 0 0 0 0 1021.5 1021.4 -
30/01:30am 18.4 - - - - CALM 0 0 0 0 1021.5 - -
30/01:00am 18.6 - - - - CALM 0 4 0 2 1021.6 1021.5 -
30/12:30am 18.5 - - - - CALM 0 0 0 0 1021.8 - -
30/12:00am 18.6 - - - - CALM 0 0 0 0 1021.8 1021.7 -
 
Date/Time
EST
Temp
°C
App
Temp
°C
Dew
Point
Rel
Hum
%
Delta-T
°C
Wind Press
QNH
hPa
Press
MSL
hPa
Rain
since 9 am
mm
Dir
 
Spd
km/h
Gust
km/h
Spd
kts
Gust
kts
29/11:30pm 19.6 - - - - N 7 7 4 4 1021.7 - -
29/11:00pm 19.7 - - - - N 7 9 4 5 1021.8 1021.7 -
29/10:30pm 19.9 - - - - N 9 11 5 6 1021.9 - -
29/10:00pm 19.8 - - - - N 9 11 5 6 1022.0 1021.9 -
29/09:30pm 20.0 - - - - N 11 13 6 7 1021.8 - -
29/09:00pm 20.1 - - - - N 11 13 6 7 1021.7 1021.6 -
29/08:30pm 20.2 - - - - N 13 15 7 8 1021.5 - -
29/08:00pm 20.2 - - - - N 15 17 8 9 1021.5 1021.4 -
29/07:30pm 20.1 - - - - N 17 19 9 10 1021.4 - -
29/07:00pm 19.9 - - - - N 17 19 9 10 1021.1 1021.0 -
29/06:30pm 19.7 - - - - N 11 13 6 7 1021.0 - -
29/06:00pm 19.6 - - - - N 13 15 7 8 1020.7 1020.6 -
29/05:30pm 19.7 - - - - N 13 15 7 8 1020.4 - -
29/05:00pm 19.9 - - - - N 15 17 8 9 1020.1 1020.0 -
29/04:30pm 20.0 - - - - N 15 15 8 8 1019.9 - -
29/04:00pm 20.1 - - - - N 13 15 7 8 1019.9 1019.8 -
29/03:30pm 20.2 - - - - N 13 15 7 8 1020.0 - -
29/03:00pm 20.2 - - - - N 11 13 6 7 1020.2 1020.1 -
29/02:30pm 20.4 - - - - N 9 11 5 6 1020.3 - -
29/02:00pm 20.5 - - - - N 9 9 5 5 1020.5 1020.4 -
29/01:30pm 20.5 - - - - N 9 9 5 5 1020.8 - -
29/01:00pm 20.1 - - - - N 9 9 5 5 1021.1 1021.0 -
29/12:30pm 20.8 - - - - N 7 9 4 5 1021.5 - -
29/12:00pm 21.4 - - - - CALM 0 0 0 0 1022.0 1021.9 -
29/11:30am 21.8 - - - - CALM 0 0 0 0 1022.7 - -
29/11:00am 21.9 - - - - CALM 0 0 0 0 1023.1 1023.0 -
29/10:30am 22.4 - - - - CALM 0 0 0 0 1023.4 - -
29/10:00am 21.4 - - - - CALM 0 0 0 0 1023.7 1023.6 -
29/09:30am 19.1 - - - - CALM 0 0 0 0 1023.8 - -
29/09:00am 18.4 - - - - SW 4 6 2 3 1023.9 1023.8 -
29/08:30am 17.9 - - - - SW 4 6 2 3 1023.9 - -
29/08:00am 17.8 - - - - SSW 9 11 5 6 1023.8 1023.7 -
29/07:30am 17.8 - - - - SSW 9 11 5 6 1023.5 - -
29/07:00am 17.5 - - - - SSW 9 11 5 6 1023.1 1023.0 -
29/06:30am 17.2 - - - - SSW 7 9 4 5 1022.8 - -
29/06:00am 17.1 - - - - SSW 9 9 5 5 1022.5 1022.4 -
29/05:30am 16.9 - - - - SW 6 7 3 4 1022.2 - -
29/05:00am 17.4 - - - - SW 9 11 5 6 1021.9 1021.8 -
29/04:30am 17.6 - - - - S 9 11 5 6 1021.4 - -
29/04:00am 17.5 - - - - S 13 15 7 8 1021.3 1021.2 -
29/03:30am 17.6 - - - - S 13 15 7 8 1021.1 - -
29/03:00am 17.8 - - - - SSW 11 13 6 7 1021.2 1021.1 -
29/02:30am 17.9 - - - - SSW 9 11 5 6 1021.2 - -
29/02:00am 17.9 - - - - SW 9 11 5 6 1021.3 1021.2 -
29/01:30am 18.1 - - - - WSW 6 9 3 5 1021.4 - -
29/01:00am 19.9 - - - - ENE 7 9 4 5 1021.5 1021.4 -
29/12:30am 20.0 - - - - ENE 9 11 5 6 1021.7 - -
29/12:00am 20.1 - - - - ENE 13 15 7 8 1021.8 1021.7 -
 
Date/Time
EST
Temp
°C
App
Temp
°C
Dew
Point
Rel
Hum
%
Delta-T
°C
Wind Press
QNH
hPa
Press
MSL
hPa
Rain
since 9 am
mm
Dir
 
Spd
km/h
Gust
km/h
Spd
kts
Gust
kts
28/11:30pm 20.2 - - - - NE 15 17 8 9 1022.0 - -
28/11:00pm 20.1 - - - - NE 11 15 6 8 1022.0 1021.9 -
28/10:30pm 20.1 - - - - ENE 13 15 7 8 1022.0 - -
28/10:00pm 20.1 - - - - NE 15 15 8 8 1022.0 1021.9 -
28/09:30pm 20.1 - - - - NE 13 15 7 8 1021.9 - -
28/09:00pm 20.2 - - - - NE 15 19 8 10 1021.7 1021.6 -
28/08:30pm 20.2 - - - - ENE 17 19 9 10 1021.7 - -
28/08:00pm 20.2 - - - - ENE 17 19 9 10 1021.4 1021.3 -
28/07:30pm 20.1 - - - - ENE 17 17 9 9 1021.3 - -

Other Formats:

Comma delimited format used in spreadsheet applications
http://www.bom.gov.au/fwo/IDQ60801/IDQ60801.94378.axf

JavaScript Object Notation format (JSON) in row-major order
http://www.bom.gov.au/fwo/IDQ60801/IDQ60801.94378.json